sensor_id;sensor_type;location;lat;lon;timestamp;temperature;humidity
12049;DHT22;6085;49.452;8.502;2022-09-20T00:00:22;10.30;99.90
12049;DHT22;6085;49.452;8.502;2022-09-20T00:04:24;10.20;99.90
12049;DHT22;6085;49.452;8.502;2022-09-20T00:08:27;10.20;99.90
12049;DHT22;6085;49.452;8.502;2022-09-20T00:12:29;10.20;99.90
12049;DHT22;6085;49.452;8.502;2022-09-20T00:16:33;10.20;99.90
12049;DHT22;6085;49.452;8.502;2022-09-20T00:20:35;10.30;99.90
12049;DHT22;6085;49.452;8.502;2022-09-20T00:24:40;10.20;99.90
12049;DHT22;6085;49.452;8.502;2022-09-20T00:28:42;10.30;99.90
12049;DHT22;6085;49.452;8.502;2022-09-20T00:32:46;10.20;99.90
12049;DHT22;6085;49.452;8.502;2022-09-20T00:36:48;10.20;99.90
12049;DHT22;6085;49.452;8.502;2022-09-20T00:40:51;10.20;99.90
12049;DHT22;6085;49.452;8.502;2022-09-20T00:44:56;10.20;99.90
12049;DHT22;6085;49.452;8.502;2022-09-20T00:49:03;10.10;99.90
12049;DHT22;6085;49.452;8.502;2022-09-20T00:53:09;10.00;99.90
12049;DHT22;6085;49.452;8.502;2022-09-20T00:57:14;10.00;99.90
12049;DHT22;6085;49.452;8.502;2022-09-20T01:01:17;9.90;99.90
12049;DHT22;6085;49.452;8.502;2022-09-20T01:05:19;9.90;99.90
12049;DHT22;6085;49.452;8.502;2022-09-20T01:09:20;9.90;99.90
12049;DHT22;6085;49.452;8.502;2022-09-20T01:13:24;9.90;99.90
12049;DHT22;6085;49.452;8.502;2022-09-20T01:17:27;9.90;99.90
12049;DHT22;6085;49.452;8.502;2022-09-20T01:21:31;9.80;99.90
12049;DHT22;6085;49.452;8.502;2022-09-20T01:25:53;9.80;99.90
12049;DHT22;6085;49.452;8.502;2022-09-20T01:30:10;9.80;99.90
12049;DHT22;6085;49.452;8.502;2022-09-20T01:34:14;9.80;99.90
12049;DHT22;6085;49.452;8.502;2022-09-20T01:38:26;9.80;99.90
12049;DHT22;6085;49.452;8.502;2022-09-20T01:42:32;9.90;99.90
12049;DHT22;6085;49.452;8.502;2022-09-20T01:46:36;9.90;99.90
12049;DHT22;6085;49.452;8.502;2022-09-20T01:50:51;9.90;99.90
12049;DHT22;6085;49.452;8.502;2022-09-20T01:55:20;9.90;99.90
12049;DHT22;6085;49.452;8.502;2022-09-20T01:59:56;10.00;99.90
12049;DHT22;6085;49.452;8.502;2022-09-20T02:04:49;10.00;99.90
12049;DHT22;6085;49.452;8.502;2022-09-20T02:09:08;10.00;99.90
12049;DHT22;6085;49.452;8.502;2022-09-20T02:13:26;10.10;99.90
12049;DHT22;6085;49.452;8.502;2022-09-20T02:17:39;10.00;99.90
12049;DHT22;6085;49.452;8.502;2022-09-20T02:21:56;10.00;99.90
12049;DHT22;6085;49.452;8.502;2022-09-20T02:26:14;10.10;99.90
12049;DHT22;6085;49.452;8.502;2022-09-20T02:30:28;10.00;99.90
12049;DHT22;6085;49.452;8.502;2022-09-20T02:34:55;9.90;99.90
12049;DHT22;6085;49.452;8.502;2022-09-20T02:39:09;9.90;99.90
12049;DHT22;6085;49.452;8.502;2022-09-20T02:43:20;9.80;99.90
12049;DHT22;6085;49.452;8.502;2022-09-20T02:47:31;9.70;99.90
12049;DHT22;6085;49.452;8.502;2022-09-20T02:51:39;9.70;99.90
12049;DHT22;6085;49.452;8.502;2022-09-20T02:55:48;9.60;99.90
12049;DHT22;6085;49.452;8.502;2022-09-20T02:59:55;9.50;99.90
12049;DHT22;6085;49.452;8.502;2022-09-20T03:04:10;9.50;99.90
12049;DHT22;6085;49.452;8.502;2022-09-20T03:08:25;9.50;99.90
12049;DHT22;6085;49.452;8.502;2022-09-20T03:12:36;9.50;99.90
12049;DHT22;6085;49.452;8.502;2022-09-20T03:16:52;9.50;99.90
12049;DHT22;6085;49.452;8.502;2022-09-20T03:21:09;9.60;99.90
12049;DHT22;6085;49.452;8.502;2022-09-20T03:25:34;9.60;99.90
12049;DHT22;6085;49.452;8.502;2022-09-20T03:29:52;9.60;99.90
12049;DHT22;6085;49.452;8.502;2022-09-20T03:34:04;9.60;99.90
12049;DHT22;6085;49.452;8.502;2022-09-20T03:38:22;9.70;99.90
12049;DHT22;6085;49.452;8.502;2022-09-20T03:42:29;9.70;99.90
12049;DHT22;6085;49.452;8.502;2022-09-20T03:46:43;9.70;99.90
12049;DHT22;6085;49.452;8.502;2022-09-20T03:51:02;9.70;99.90
12049;DHT22;6085;49.452;8.502;2022-09-20T03:55:25;9.60;99.90
12049;DHT22;6085;49.452;8.502;2022-09-20T03:59:46;9.50;99.90
12049;DHT22;6085;49.452;8.502;2022-09-20T04:04:02;9.30;99.90
12049;DHT22;6085;49.452;8.502;2022-09-20T04:08:20;9.20;99.90
12049;DHT22;6085;49.452;8.502;2022-09-20T04:12:31;9.00;99.90
12049;DHT22;6085;49.452;8.502;2022-09-20T04:16:42;8.80;99.90
12049;DHT22;6085;49.452;8.502;2022-09-20T04:20:49;8.70;99.90
12049;DHT22;6085;49.452;8.502;2022-09-20T04:24:55;8.60;99.90
12049;DHT22;6085;49.452;8.502;2022-09-20T04:29:09;8.40;99.90
12049;DHT22;6085;49.452;8.502;2022-09-20T04:33:18;8.30;99.90
12049;DHT22;6085;49.452;8.502;2022-09-20T04:37:26;8.20;99.90
12049;DHT22;6085;49.452;8.502;2022-09-20T04:41:53;8.10;99.90
12049;DHT22;6085;49.452;8.502;2022-09-20T04:46:39;7.90;99.90
12049;DHT22;6085;49.452;8.502;2022-09-20T04:51:16;7.80;99.90
12049;DHT22;6085;49.452;8.502;2022-09-20T04:55:46;7.80;99.90
12049;DHT22;6085;49.452;8.502;2022-09-20T05:00:00;7.70;99.90
12049;DHT22;6085;49.452;8.502;2022-09-20T05:13:37;7.70;99.90
12049;DHT22;6085;49.452;8.502;2022-09-20T05:18:06;7.70;99.90
12049;DHT22;6085;49.452;8.502;2022-09-20T05:22:53;7.70;99.90
12049;DHT22;6085;49.452;8.502;2022-09-20T05:27:10;7.70;99.90
12049;DHT22;6085;49.452;8.502;2022-09-20T05:31:23;7.60;99.90
12049;DHT22;6085;49.452;8.502;2022-09-20T05:35:31;7.70;99.90
12049;DHT22;6085;49.452;8.502;2022-09-20T05:39:37;7.80;99.90
12049;DHT22;6085;49.452;8.502;2022-09-20T05:43:50;7.90;99.90
12049;DHT22;6085;49.452;8.502;2022-09-20T05:47:58;8.10;99.90
12049;DHT22;6085;49.452;8.502;2022-09-20T05:52:25;8.30;99.90
12049;DHT22;6085;49.452;8.502;2022-09-20T05:56:36;8.40;99.90
12049;DHT22;6085;49.452;8.502;2022-09-20T06:00:48;8.60;99.90
12049;DHT22;6085;49.452;8.502;2022-09-20T06:04:59;9.20;99.90
12049;DHT22;6085;49.452;8.502;2022-09-20T06:09:17;9.70;99.90
12049;DHT22;6085;49.452;8.502;2022-09-20T06:13:34;10.40;99.90
12049;DHT22;6085;49.452;8.502;2022-09-20T06:17:46;10.90;99.90
12049;DHT22;6085;49.452;8.502;2022-09-20T06:21:53;11.40;99.90
12049;DHT22;6085;49.452;8.502;2022-09-20T06:25:58;12.00;99.90
12049;DHT22;6085;49.452;8.502;2022-09-20T06:30:05;12.10;99.90
12049;DHT22;6085;49.452;8.502;2022-09-20T06:34:09;12.00;99.90
12049;DHT22;6085;49.452;8.502;2022-09-20T06:38:31;11.80;99.90
12049;DHT22;6085;49.452;8.502;2022-09-20T06:42:52;11.40;99.90
12049;DHT22;6085;49.452;8.502;2022-09-20T06:46:54;11.00;99.90
12049;DHT22;6085;49.452;8.502;2022-09-20T06:50:56;11.10;99.90
12049;DHT22;6085;49.452;8.502;2022-09-20T06:54:59;11.60;99.90
12049;DHT22;6085;49.452;8.502;2022-09-20T06:59:08;12.00;99.90
12049;DHT22;6085;49.452;8.502;2022-09-20T07:03:11;12.30;99.90
12049;DHT22;6085;49.452;8.502;2022-09-20T07:07:15;12.60;99.90
12049;DHT22;6085;49.452;8.502;2022-09-20T07:11:20;13.10;99.90
12049;DHT22;6085;49.452;8.502;2022-09-20T07:15:22;13.40;99.90
12049;DHT22;6085;49.452;8.502;2022-09-20T07:19:24;13.90;99.90
12049;DHT22;6085;49.452;8.502;2022-09-20T07:23:26;14.50;99.90
12049;DHT22;6085;49.452;8.502;2022-09-20T07:27:30;14.40;99.90
12049;DHT22;6085;49.452;8.502;2022-09-20T07:31:32;14.00;99.90
12049;DHT22;6085;49.452;8.502;2022-09-20T07:35:34;13.90;99.90
12049;DHT22;6085;49.452;8.502;2022-09-20T07:39:36;14.70;99.90
12049;DHT22;6085;49.452;8.502;2022-09-20T07:43:40;16.50;99.90
12049;DHT22;6085;49.452;8.502;2022-09-20T07:47:42;18.30;99.90
12049;DHT22;6085;49.452;8.502;2022-09-20T07:51:46;19.60;99.90
12049;DHT22;6085;49.452;8.502;2022-09-20T07:55:58;20.40;99.90
12049;DHT22;6085;49.452;8.502;2022-09-20T08:00:04;20.60;99.90
12049;DHT22;6085;49.452;8.502;2022-09-20T08:04:06;21.10;99.90
12049;DHT22;6085;49.452;8.502;2022-09-20T08:08:08;21.30;99.90
12049;DHT22;6085;49.452;8.502;2022-09-20T08:12:11;20.90;99.90
12049;DHT22;6085;49.452;8.502;2022-09-20T08:16:15;19.80;99.90
12049;DHT22;6085;49.452;8.502;2022-09-20T08:20:17;22.00;99.90
12049;DHT22;6085;49.452;8.502;2022-09-20T08:24:19;22.70;99.90
12049;DHT22;6085;49.452;8.502;2022-09-20T08:28:21;22.60;99.90
12049;DHT22;6085;49.452;8.502;2022-09-20T08:32:25;22.10;99.90
12049;DHT22;6085;49.452;8.502;2022-09-20T08:36:26;21.10;99.90
12049;DHT22;6085;49.452;8.502;2022-09-20T08:40:29;19.70;99.90
12049;DHT22;6085;49.452;8.502;2022-09-20T08:44:33;18.30;99.90
12049;DHT22;6085;49.452;8.502;2022-09-20T08:48:37;17.40;99.90
12049;DHT22;6085;49.452;8.502;2022-09-20T08:52:39;17.20;99.90
12049;DHT22;6085;49.452;8.502;2022-09-20T08:56:44;16.90;99.90
12049;DHT22;6085;49.452;8.502;2022-09-20T09:00:47;16.70;99.90
12049;DHT22;6085;49.452;8.502;2022-09-20T09:04:50;16.60;99.90
12049;DHT22;6085;49.452;8.502;2022-09-20T09:08:54;16.30;99.90
12049;DHT22;6085;49.452;8.502;2022-09-20T09:13:01;17.20;99.90
12049;DHT22;6085;49.452;8.502;2022-09-20T09:17:04;17.60;99.90
12049;DHT22;6085;49.452;8.502;2022-09-20T09:21:08;17.40;99.90
12049;DHT22;6085;49.452;8.502;2022-09-20T09:25:22;16.40;99.90
12049;DHT22;6085;49.452;8.502;2022-09-20T09:29:24;15.80;99.90
12049;DHT22;6085;49.452;8.502;2022-09-20T09:33:27;15.70;99.90
12049;DHT22;6085;49.452;8.502;2022-09-20T09:37:31;16.10;99.90
12049;DHT22;6085;49.452;8.502;2022-09-20T09:41:33;16.30;99.90
12049;DHT22;6085;49.452;8.502;2022-09-20T09:45:37;16.40;99.90
12049;DHT22;6085;49.452;8.502;2022-09-20T09:49:54;16.30;99.90
12049;DHT22;6085;49.452;8.502;2022-09-20T09:53:58;16.10;99.90
12049;DHT22;6085;49.452;8.502;2022-09-20T09:58:04;16.20;99.90
12049;DHT22;6085;49.452;8.502;2022-09-20T10:02:22;16.30;99.90
12049;DHT22;6085;49.452;8.502;2022-09-20T10:06:31;16.00;99.90
12049;DHT22;6085;49.452;8.502;2022-09-20T10:10:38;15.60;99.90
12049;DHT22;6085;49.452;8.502;2022-09-20T10:14:53;15.30;99.90
12049;DHT22;6085;49.452;8.502;2022-09-20T10:19:08;15.20;99.90
12049;DHT22;6085;49.452;8.502;2022-09-20T10:23:26;15.60;99.90
12049;DHT22;6085;49.452;8.502;2022-09-20T10:27:42;16.00;99.90
12049;DHT22;6085;49.452;8.502;2022-09-20T10:31:54;16.40;99.90
12049;DHT22;6085;49.452;8.502;2022-09-20T10:36:13;16.80;99.90
12049;DHT22;6085;49.452;8.502;2022-09-20T10:40:25;17.30;99.90
12049;DHT22;6085;49.452;8.502;2022-09-20T10:45:11;18.20;99.90
12049;DHT22;6085;49.452;8.502;2022-09-20T10:49:26;18.30;99.90
12049;DHT22;6085;49.452;8.502;2022-09-20T10:53:33;17.90;99.90
12049;DHT22;6085;49.452;8.502;2022-09-20T10:57:57;17.40;99.90
12049;DHT22;6085;49.452;8.502;2022-09-20T11:02:25;16.90;99.90
12049;DHT22;6085;49.452;8.502;2022-09-20T11:06:40;16.30;99.90
12049;DHT22;6085;49.452;8.502;2022-09-20T11:10:45;15.10;99.90
12049;DHT22;6085;49.452;8.502;2022-09-20T11:14:51;13.90;99.90
12049;DHT22;6085;49.452;8.502;2022-09-20T11:18:58;13.30;99.90
12049;DHT22;6085;49.452;8.502;2022-09-20T11:23:05;13.40;99.90
12049;DHT22;6085;49.452;8.502;2022-09-20T11:27:15;13.70;99.90
12049;DHT22;6085;49.452;8.502;2022-09-20T11:31:23;14.70;99.90
12049;DHT22;6085;49.452;8.502;2022-09-20T11:35:31;15.10;99.90
12049;DHT22;6085;49.452;8.502;2022-09-20T11:39:38;15.30;99.90
12049;DHT22;6085;49.452;8.502;2022-09-20T11:43:42;15.20;99.90
12049;DHT22;6085;49.452;8.502;2022-09-20T11:47:47;15.00;99.90
12049;DHT22;6085;49.452;8.502;2022-09-20T11:52:18;14.80;99.90
12049;DHT22;6085;49.452;8.502;2022-09-20T11:56:27;14.50;99.90
12049;DHT22;6085;49.452;8.502;2022-09-20T12:00:31;14.70;99.90
12049;DHT22;6085;49.452;8.502;2022-09-20T12:04:34;15.50;99.90
12049;DHT22;6085;49.452;8.502;2022-09-20T12:08:40;15.90;99.90
12049;DHT22;6085;49.452;8.502;2022-09-20T12:12:44;15.90;99.90
12049;DHT22;6085;49.452;8.502;2022-09-20T12:16:48;16.00;99.90
12049;DHT22;6085;49.452;8.502;2022-09-20T12:21:06;16.30;99.90
12049;DHT22;6085;49.452;8.502;2022-09-20T12:25:34;16.30;99.90
12049;DHT22;6085;49.452;8.502;2022-09-20T12:29:53;16.10;99.90
12049;DHT22;6085;49.452;8.502;2022-09-20T12:34:04;16.10;99.90
12049;DHT22;6085;49.452;8.502;2022-09-20T12:38:30;15.90;99.90
12049;DHT22;6085;49.452;8.502;2022-09-20T12:42:35;15.70;99.90
12049;DHT22;6085;49.452;8.502;2022-09-20T12:46:42;15.90;99.90
12049;DHT22;6085;49.452;8.502;2022-09-20T12:51:02;16.00;99.90
12049;DHT22;6085;49.452;8.502;2022-09-20T12:55:35;16.50;99.90
12049;DHT22;6085;49.452;8.502;2022-09-20T12:59:41;16.90;99.90
12049;DHT22;6085;49.452;8.502;2022-09-20T13:03:45;17.00;99.90
12049;DHT22;6085;49.452;8.502;2022-09-20T13:07:52;17.30;99.90
12049;DHT22;6085;49.452;8.502;2022-09-20T13:12:00;17.40;99.90
12049;DHT22;6085;49.452;8.502;2022-09-20T13:16:06;17.70;99.90
12049;DHT22;6085;49.452;8.502;2022-09-20T13:20:15;17.90;99.90
12049;DHT22;6085;49.452;8.502;2022-09-20T13:24:19;17.90;99.90
12049;DHT22;6085;49.452;8.502;2022-09-20T13:28:28;17.80;99.90
12049;DHT22;6085;49.452;8.502;2022-09-20T13:32:33;17.70;99.90
12049;DHT22;6085;49.452;8.502;2022-09-20T13:36:35;17.50;99.90
12049;DHT22;6085;49.452;8.502;2022-09-20T13:40:39;17.20;99.90
12049;DHT22;6085;49.452;8.502;2022-09-20T13:44:42;16.90;99.90
12049;DHT22;6085;49.452;8.502;2022-09-20T13:48:47;16.50;99.90
12049;DHT22;6085;49.452;8.502;2022-09-20T13:52:50;16.40;99.90
12049;DHT22;6085;49.452;8.502;2022-09-20T13:56:54;16.50;99.90
12049;DHT22;6085;49.452;8.502;2022-09-20T14:00:58;16.70;99.90
12049;DHT22;6085;49.452;8.502;2022-09-20T14:05:04;16.80;99.90
12049;DHT22;6085;49.452;8.502;2022-09-20T14:09:14;16.80;99.90
12049;DHT22;6085;49.452;8.502;2022-09-20T14:13:18;16.80;99.90
12049;DHT22;6085;49.452;8.502;2022-09-20T14:17:21;16.60;99.90
12049;DHT22;6085;49.452;8.502;2022-09-20T14:21:27;16.40;99.90
12049;DHT22;6085;49.452;8.502;2022-09-20T14:25:29;16.50;99.90
12049;DHT22;6085;49.452;8.502;2022-09-20T14:29:38;16.50;99.90
12049;DHT22;6085;49.452;8.502;2022-09-20T14:33:43;16.60;99.90
12049;DHT22;6085;49.452;8.502;2022-09-20T14:37:49;16.60;99.90
12049;DHT22;6085;49.452;8.502;2022-09-20T14:41:51;16.50;99.90
12049;DHT22;6085;49.452;8.502;2022-09-20T14:45:55;16.50;99.90
12049;DHT22;6085;49.452;8.502;2022-09-20T14:49:58;16.60;99.90
12049;DHT22;6085;49.452;8.502;2022-09-20T14:54:23;16.60;99.90
12049;DHT22;6085;49.452;8.502;2022-09-20T14:58:26;16.60;99.90
12049;DHT22;6085;49.452;8.502;2022-09-20T15:02:28;16.60;99.90
12049;DHT22;6085;49.452;8.502;2022-09-20T15:06:30;16.50;99.90
12049;DHT22;6085;49.452;8.502;2022-09-20T15:10:33;16.50;99.90
12049;DHT22;6085;49.452;8.502;2022-09-20T15:14:35;16.30;99.90
12049;DHT22;6085;49.452;8.502;2022-09-20T15:18:40;16.20;99.90
12049;DHT22;6085;49.452;8.502;2022-09-20T15:22:42;16.00;99.90
12049;DHT22;6085;49.452;8.502;2022-09-20T15:26:46;15.80;99.90
12049;DHT22;6085;49.452;8.502;2022-09-20T15:30:49;15.80;99.90
12049;DHT22;6085;49.452;8.502;2022-09-20T15:34:52;15.70;99.90
12049;DHT22;6085;49.452;8.502;2022-09-20T15:38:53;15.70;99.90
12049;DHT22;6085;49.452;8.502;2022-09-20T15:42:57;15.60;99.90
12049;DHT22;6085;49.452;8.502;2022-09-20T15:46:59;15.60;99.90
12049;DHT22;6085;49.452;8.502;2022-09-20T15:51:04;15.60;99.90
12049;DHT22;6085;49.452;8.502;2022-09-20T15:55:07;15.60;99.90
12049;DHT22;6085;49.452;8.502;2022-09-20T15:59:11;15.60;99.90
12049;DHT22;6085;49.452;8.502;2022-09-20T16:03:14;15.70;99.90
12049;DHT22;6085;49.452;8.502;2022-09-20T16:07:16;15.60;99.90
12049;DHT22;6085;49.452;8.502;2022-09-20T16:11:24;15.50;99.90
12049;DHT22;6085;49.452;8.502;2022-09-20T16:15:29;15.40;99.90
12049;DHT22;6085;49.452;8.502;2022-09-20T16:19:30;15.30;99.90
12049;DHT22;6085;49.452;8.502;2022-09-20T16:23:32;15.20;99.90
12049;DHT22;6085;49.452;8.502;2022-09-20T16:27:36;15.10;99.90
12049;DHT22;6085;49.452;8.502;2022-09-20T16:31:41;15.00;99.90
12049;DHT22;6085;49.452;8.502;2022-09-20T16:35:44;14.90;99.90
12049;DHT22;6085;49.452;8.502;2022-09-20T16:39:46;14.80;99.90
12049;DHT22;6085;49.452;8.502;2022-09-20T16:43:48;14.60;99.90
12049;DHT22;6085;49.452;8.502;2022-09-20T16:47:53;14.50;99.90
12049;DHT22;6085;49.452;8.502;2022-09-20T16:51:58;14.40;99.90
12049;DHT22;6085;49.452;8.502;2022-09-20T16:56:00;14.30;99.90
12049;DHT22;6085;49.452;8.502;2022-09-20T17:00:06;14.20;99.90
12049;DHT22;6085;49.452;8.502;2022-09-20T17:04:11;14.10;99.90
12049;DHT22;6085;49.452;8.502;2022-09-20T17:08:14;14.10;99.90
12049;DHT22;6085;49.452;8.502;2022-09-20T17:12:17;14.00;99.90
12049;DHT22;6085;49.452;8.502;2022-09-20T17:16:23;13.80;99.90
12049;DHT22;6085;49.452;8.502;2022-09-20T17:20:27;13.60;99.90
12049;DHT22;6085;49.452;8.502;2022-09-20T17:24:29;13.40;99.90
12049;DHT22;6085;49.452;8.502;2022-09-20T17:28:36;13.30;99.90
12049;DHT22;6085;49.452;8.502;2022-09-20T17:32:38;13.10;99.90
12049;DHT22;6085;49.452;8.502;2022-09-20T17:36:49;13.00;99.90
12049;DHT22;6085;49.452;8.502;2022-09-20T17:40:58;12.90;99.90
12049;DHT22;6085;49.452;8.502;2022-09-20T17:45:02;12.80;99.90
12049;DHT22;6085;49.452;8.502;2022-09-20T17:49:06;12.60;99.90
12049;DHT22;6085;49.452;8.502;2022-09-20T17:53:11;12.30;99.90
12049;DHT22;6085;49.452;8.502;2022-09-20T17:57:14;12.10;99.90
12049;DHT22;6085;49.452;8.502;2022-09-20T18:01:18;11.90;99.90
12049;DHT22;6085;49.452;8.502;2022-09-20T18:05:21;11.70;99.90
12049;DHT22;6085;49.452;8.502;2022-09-20T18:09:27;11.50;99.90
12049;DHT22;6085;49.452;8.502;2022-09-20T18:13:32;11.30;99.90
12049;DHT22;6085;49.452;8.502;2022-09-20T18:17:35;11.20;99.90
12049;DHT22;6085;49.452;8.502;2022-09-20T18:21:38;11.10;99.90
12049;DHT22;6085;49.452;8.502;2022-09-20T18:25:42;11.10;99.90
12049;DHT22;6085;49.452;8.502;2022-09-20T18:30:01;11.10;99.90
12049;DHT22;6085;49.452;8.502;2022-09-20T18:34:04;11.00;99.90
12049;DHT22;6085;49.452;8.502;2022-09-20T18:38:07;10.80;99.90
12049;DHT22;6085;49.452;8.502;2022-09-20T18:42:11;10.60;99.90
12049;DHT22;6085;49.452;8.502;2022-09-20T18:46:13;10.50;99.90
12049;DHT22;6085;49.452;8.502;2022-09-20T18:50:15;10.40;99.90
12049;DHT22;6085;49.452;8.502;2022-09-20T18:54:17;10.20;99.90
12049;DHT22;6085;49.452;8.502;2022-09-20T18:58:21;10.10;99.90
12049;DHT22;6085;49.452;8.502;2022-09-20T19:02:48;10.10;99.90
12049;DHT22;6085;49.452;8.502;2022-09-20T19:07:01;10.00;99.90
12049;DHT22;6085;49.452;8.502;2022-09-20T19:11:10;9.90;99.90
12049;DHT22;6085;49.452;8.502;2022-09-20T19:15:37;9.80;99.90
12049;DHT22;6085;49.452;8.502;2022-09-20T19:19:46;9.80;99.90
12049;DHT22;6085;49.452;8.502;2022-09-20T19:24:01;9.80;99.90
12049;DHT22;6085;49.452;8.502;2022-09-20T19:28:09;9.80;99.90
12049;DHT22;6085;49.452;8.502;2022-09-20T19:32:15;9.70;99.90
12049;DHT22;6085;49.452;8.502;2022-09-20T19:36:21;9.60;99.90
12049;DHT22;6085;49.452;8.502;2022-09-20T19:40:29;9.60;99.90
12049;DHT22;6085;49.452;8.502;2022-09-20T19:44:40;9.50;99.90
12049;DHT22;6085;49.452;8.502;2022-09-20T19:48:53;9.50;99.90
12049;DHT22;6085;49.452;8.502;2022-09-20T19:52:58;9.40;99.90
12049;DHT22;6085;49.452;8.502;2022-09-20T19:57:05;9.30;99.90
12049;DHT22;6085;49.452;8.502;2022-09-20T20:01:09;9.30;99.90
12049;DHT22;6085;49.452;8.502;2022-09-20T20:05:15;9.20;99.90
12049;DHT22;6085;49.452;8.502;2022-09-20T20:09:25;9.20;99.90
12049;DHT22;6085;49.452;8.502;2022-09-20T20:13:33;9.20;99.90
12049;DHT22;6085;49.452;8.502;2022-09-20T20:17:59;9.10;99.90
12049;DHT22;6085;49.452;8.502;2022-09-20T20:22:13;9.10;99.90
12049;DHT22;6085;49.452;8.502;2022-09-20T20:26:19;9.20;99.90
12049;DHT22;6085;49.452;8.502;2022-09-20T20:30:22;9.20;99.90
12049;DHT22;6085;49.452;8.502;2022-09-20T20:34:24;9.30;99.90
12049;DHT22;6085;49.452;8.502;2022-09-20T20:38:28;9.40;99.90
12049;DHT22;6085;49.452;8.502;2022-09-20T20:42:37;9.40;99.90
12049;DHT22;6085;49.452;8.502;2022-09-20T20:46:39;9.50;99.90
12049;DHT22;6085;49.452;8.502;2022-09-20T20:50:41;9.60;99.90
12049;DHT22;6085;49.452;8.502;2022-09-20T20:54:44;9.60;99.90
12049;DHT22;6085;49.452;8.502;2022-09-20T20:58:47;9.70;99.90
12049;DHT22;6085;49.452;8.502;2022-09-20T21:02:55;9.80;99.90
12049;DHT22;6085;49.452;8.502;2022-09-20T21:06:57;9.80;99.90
12049;DHT22;6085;49.452;8.502;2022-09-20T21:11:03;9.90;99.90
12049;DHT22;6085;49.452;8.502;2022-09-20T21:15:06;10.00;99.90
12049;DHT22;6085;49.452;8.502;2022-09-20T21:19:09;10.00;99.90
12049;DHT22;6085;49.452;8.502;2022-09-20T21:23:14;10.10;99.90
12049;DHT22;6085;49.452;8.502;2022-09-20T21:27:17;10.20;99.90
12049;DHT22;6085;49.452;8.502;2022-09-20T21:31:21;10.20;99.90
12049;DHT22;6085;49.452;8.502;2022-09-20T21:35:23;10.10;99.90
12049;DHT22;6085;49.452;8.502;2022-09-20T21:39:25;10.10;99.90
12049;DHT22;6085;49.452;8.502;2022-09-20T21:43:28;10.00;99.90
12049;DHT22;6085;49.452;8.502;2022-09-20T21:47:30;10.00;99.90
12049;DHT22;6085;49.452;8.502;2022-09-20T21:51:32;9.90;99.90
12049;DHT22;6085;49.452;8.502;2022-09-20T21:55:34;9.90;99.90
12049;DHT22;6085;49.452;8.502;2022-09-20T21:59:37;9.80;99.90
12049;DHT22;6085;49.452;8.502;2022-09-20T22:03:40;9.70;99.90
12049;DHT22;6085;49.452;8.502;2022-09-20T22:07:42;9.70;99.90
12049;DHT22;6085;49.452;8.502;2022-09-20T22:11:45;9.60;99.90
12049;DHT22;6085;49.452;8.502;2022-09-20T22:15:49;9.60;99.90
12049;DHT22;6085;49.452;8.502;2022-09-20T22:19:50;9.50;99.90
12049;DHT22;6085;49.452;8.502;2022-09-20T22:23:54;9.50;99.90
12049;DHT22;6085;49.452;8.502;2022-09-20T22:27:57;9.50;99.90
12049;DHT22;6085;49.452;8.502;2022-09-20T22:32:00;9.40;99.90
12049;DHT22;6085;49.452;8.502;2022-09-20T22:36:06;9.40;99.90
12049;DHT22;6085;49.452;8.502;2022-09-20T22:40:08;9.30;99.90
12049;DHT22;6085;49.452;8.502;2022-09-20T22:44:11;9.30;99.90
12049;DHT22;6085;49.452;8.502;2022-09-20T22:48:14;9.10;99.90
12049;DHT22;6085;49.452;8.502;2022-09-20T22:52:16;8.90;99.90
12049;DHT22;6085;49.452;8.502;2022-09-20T22:56:19;8.70;99.90
12049;DHT22;6085;49.452;8.502;2022-09-20T23:00:21;8.60;99.90
12049;DHT22;6085;49.452;8.502;2022-09-20T23:04:24;8.50;99.90
12049;DHT22;6085;49.452;8.502;2022-09-20T23:08:26;8.40;99.90
12049;DHT22;6085;49.452;8.502;2022-09-20T23:12:31;8.30;99.90
12049;DHT22;6085;49.452;8.502;2022-09-20T23:16:35;8.20;99.90
12049;DHT22;6085;49.452;8.502;2022-09-20T23:20:38;8.10;99.90
12049;DHT22;6085;49.452;8.502;2022-09-20T23:24:40;8.10;99.90
12049;DHT22;6085;49.452;8.502;2022-09-20T23:28:44;8.00;99.90
12049;DHT22;6085;49.452;8.502;2022-09-20T23:32:46;7.90;99.90
12049;DHT22;6085;49.452;8.502;2022-09-20T23:36:49;7.90;99.90
12049;DHT22;6085;49.452;8.502;2022-09-20T23:40:51;7.80;99.90
12049;DHT22;6085;49.452;8.502;2022-09-20T23:44:53;7.80;99.90
12049;DHT22;6085;49.452;8.502;2022-09-20T23:48:55;7.70;99.90
12049;DHT22;6085;49.452;8.502;2022-09-20T23:52:58;7.60;99.90
12049;DHT22;6085;49.452;8.502;2022-09-20T23:57:03;7.60;99.90
